Time;durP1;ratioP1;P1;durP2;ratioP2;P2;SDS_P1;SDS_P2;PMS_P1;PMS_P2;Temp;Humidity;BMP_temperature;BMP_pressure;BME280_temperature;BME280_humidity;BME280_pressure;Samples;Min_cycle;Max_cycle;Signal;HPM_P1;HPM_P2
2024/02/18 00:01:08;;;;;;;7.07;4.18;;;;;;;;;;4888458;29;20046;-82
2024/02/18 00:03:53;;;;;;;10.35;4.22;;;;;;;;;;4895685;29;20091;-82
2024/02/18 00:06:39;;;;;;;11.77;4.97;;;;;;;;;;4895992;29;20095;-82
2024/02/18 00:09:24;;;;;;;11.52;5.22;;;;;;;;;;4895971;29;20024;-81
2024/02/18 00:12:09;;;;;;;9.45;5.25;;;;;;;;;;4896130;29;20036;-82
2024/02/18 00:14:54;;;;;;;13.40;5.65;;;;;;;;;;4894152;29;20106;-81
2024/02/18 00:17:39;;;;;;;10.02;5.60;;;;;;;;;;4897215;29;20095;-81
2024/02/18 00:20:25;;;;;;;11.93;6.45;;;;;;;;;;4905285;29;20019;-81
2024/02/18 00:23:10;;;;;;;12.68;5.53;;;;;;;;;;4883163;29;20031;-82
2024/02/18 00:26:01;;;;;;;10.35;5.13;;;;;;;;;;4895942;29;20111;-82
2024/02/18 00:28:47;;;;;;;8.15;5.10;;;;;;;;;;4909898;29;20020;-81
2024/02/18 00:31:32;;;;;;;8.90;5.45;;;;;;;;;;4903116;29;20032;-81
2024/02/18 00:34:20;;;;;;;11.38;5.35;;;;;;;;;;4908454;29;20085;-81
2024/02/18 00:37:06;;;;;;;9.55;5.03;;;;;;;;;;4908765;29;20058;-81
2024/02/18 00:39:53;;;;;;;14.27;5.95;;;;;;;;;;4894428;29;20032;-82
2024/02/18 00:42:39;;;;;;;9.48;5.18;;;;;;;;;;4903542;29;20387;-81
2024/02/18 00:45:24;;;;;;;9.07;5.22;;;;;;;;;;4909088;29;20038;-81
2024/02/18 00:48:09;;;;;;;9.98;4.72;;;;;;;;;;4893847;29;20044;-81
2024/02/18 00:50:54;;;;;;;8.70;4.90;;;;;;;;;;4899620;29;20083;-81
2024/02/18 00:53:40;;;;;;;11.60;4.80;;;;;;;;;;4895529;29;20028;-80
2024/02/18 00:56:25;;;;;;;11.23;5.72;;;;;;;;;;4905084;29;20114;-80
2024/02/18 00:59:10;;;;;;;9.07;5.25;;;;;;;;;;4901450;29;20032;-80
2024/02/18 01:01:56;;;;;;;12.35;5.25;;;;;;;;;;4892960;29;20050;-80
2024/02/18 01:04:41;;;;;;;7.93;4.18;;;;;;;;;;4892924;29;20032;-80
2024/02/18 01:07:26;;;;;;;10.80;4.72;;;;;;;;;;4906068;29;20028;-80
2024/02/18 01:10:12;;;;;;;8.57;4.10;;;;;;;;;;4898441;29;20034;-80
2024/02/18 01:12:57;;;;;;;9.48;5.10;;;;;;;;;;4906959;29;20040;-81
2024/02/18 01:15:42;;;;;;;9.05;4.97;;;;;;;;;;4901768;29;20498;-80
2024/02/18 01:18:28;;;;;;;11.57;5.07;;;;;;;;;;4897228;29;20123;-82
2024/02/18 01:21:15;;;;;;;7.97;4.35;;;;;;;;;;4912000;29;20027;-81
2024/02/18 01:24:00;;;;;;;13.15;4.80;;;;;;;;;;4898263;29;20217;-80
2024/02/18 01:26:46;;;;;;;7.80;4.60;;;;;;;;;;4911868;29;20028;-80
2024/02/18 01:29:31;;;;;;;7.63;4.50;;;;;;;;;;4904363;29;20041;-81
2024/02/18 01:32:16;;;;;;;7.55;4.50;;;;;;;;;;4911429;29;20431;-82
2024/02/18 01:35:02;;;;;;;8.50;4.40;;;;;;;;;;4900468;29;20183;-82
2024/02/18 01:37:47;;;;;;;7.68;4.32;;;;;;;;;;4904221;29;20083;-81
2024/02/18 01:40:32;;;;;;;7.60;4.05;;;;;;;;;;4911284;29;20592;-82
2024/02/18 01:43:18;;;;;;;9.07;5.15;;;;;;;;;;4903330;29;20023;-81
2024/02/18 01:46:03;;;;;;;9.52;4.68;;;;;;;;;;4890908;29;20118;-81
2024/02/18 01:48:48;;;;;;;6.68;3.88;;;;;;;;;;4894119;29;20024;-81
2024/02/18 01:51:34;;;;;;;8.40;4.35;;;;;;;;;;4907969;29;20028;-81
2024/02/18 01:54:19;;;;;;;7.38;4.20;;;;;;;;;;4891080;29;20035;-81
2024/02/18 01:57:06;;;;;;;9.45;4.95;;;;;;;;;;4900085;29;20074;-81
2024/02/18 01:59:51;;;;;;;9.00;4.25;;;;;;;;;;4894738;29;20068;-81
2024/02/18 02:02:37;;;;;;;9.00;4.35;;;;;;;;;;4908204;29;20024;-81
2024/02/18 02:05:22;;;;;;;9.20;4.35;;;;;;;;;;4903291;29;20027;-80
2024/02/18 02:08:07;;;;;;;8.90;4.47;;;;;;;;;;4902263;29;20035;-78
2024/02/18 02:10:52;;;;;;;8.95;4.60;;;;;;;;;;4905852;29;20035;-79
2024/02/18 02:13:38;;;;;;;9.10;5.05;;;;;;;;;;4904907;29;20055;-78
2024/02/18 02:16:24;;;;;;;8.90;4.68;;;;;;;;;;4929271;29;20123;-79
2024/02/18 02:19:09;;;;;;;9.38;4.47;;;;;;;;;;4920376;29;20105;-79
2024/02/18 02:21:54;;;;;;;7.03;4.55;;;;;;;;;;4914750;29;20080;-79
2024/02/18 02:24:40;;;;;;;9.15;4.50;;;;;;;;;;4908790;29;20036;-80
2024/02/18 02:27:29;;;;;;;7.30;4.45;;;;;;;;;;4915096;29;20542;-81
2024/02/18 02:30:14;;;;;;;8.95;4.40;;;;;;;;;;4894854;29;20107;-81
2024/02/18 02:32:59;;;;;;;6.93;4.38;;;;;;;;;;4911718;29;20110;-81
2024/02/18 02:35:45;;;;;;;7.40;4.35;;;;;;;;;;4906446;29;20043;-81
2024/02/18 02:38:31;;;;;;;10.75;4.60;;;;;;;;;;4897318;29;20024;-81
2024/02/18 02:41:18;;;;;;;8.68;4.20;;;;;;;;;;4896012;29;20020;-80
2024/02/18 02:44:03;;;;;;;8.80;4.22;;;;;;;;;;4893717;29;20028;-81
2024/02/18 02:46:48;;;;;;;8.27;4.40;;;;;;;;;;4902668;29;20098;-80
2024/02/18 02:49:34;;;;;;;10.57;4.20;;;;;;;;;;4904367;29;20165;-80
2024/02/18 02:52:19;;;;;;;6.43;4.22;;;;;;;;;;4900826;29;20028;-81
2024/02/18 02:55:05;;;;;;;7.88;4.75;;;;;;;;;;4902484;29;20035;-80
2024/02/18 02:57:52;;;;;;;10.00;4.93;;;;;;;;;;4895778;29;20032;-80
2024/02/18 03:00:38;;;;;;;7.03;4.40;;;;;;;;;;4896992;29;20024;-80
2024/02/18 03:03:23;;;;;;;11.15;4.60;;;;;;;;;;4895748;29;20035;-80
2024/02/18 03:06:11;;;;;;;8.27;4.70;;;;;;;;;;4913212;29;20027;-80
2024/02/18 03:08:57;;;;;;;8.65;4.60;;;;;;;;;;4904356;29;20031;-80
2024/02/18 03:11:42;;;;;;;10.10;4.72;;;;;;;;;;4912945;29;20028;-80
2024/02/18 03:14:28;;;;;;;11.27;4.80;;;;;;;;;;4911158;29;20048;-80
2024/02/18 03:17:13;;;;;;;7.30;4.28;;;;;;;;;;4902164;29;20056;-80
2024/02/18 03:19:58;;;;;;;8.27;4.80;;;;;;;;;;4897921;29;20032;-80
2024/02/18 03:22:44;;;;;;;8.70;4.72;;;;;;;;;;4921420;29;20035;-80
2024/02/18 03:25:29;;;;;;;12.00;5.85;;;;;;;;;;4908299;29;20028;-80
2024/02/18 03:28:17;;;;;;;12.05;5.80;;;;;;;;;;4899990;29;20062;-80
2024/02/18 03:31:03;;;;;;;8.15;5.18;;;;;;;;;;4912345;29;20024;-80
2024/02/18 03:33:48;;;;;;;9.10;4.70;;;;;;;;;;4903966;29;20035;-80
2024/02/18 03:36:33;;;;;;;7.78;4.57;;;;;;;;;;4910888;29;20028;-79
2024/02/18 03:39:19;;;;;;;7.75;4.35;;;;;;;;;;4888032;29;20025;-81
2024/02/18 03:42:04;;;;;;;12.07;4.82;;;;;;;;;;4899877;29;20028;-81
2024/02/18 03:44:49;;;;;;;8.30;4.30;;;;;;;;;;4905234;29;20035;-82
2024/02/18 03:47:35;;;;;;;7.13;4.60;;;;;;;;;;4902078;29;20036;-79
2024/02/18 03:50:20;;;;;;;9.32;5.25;;;;;;;;;;4911984;29;20031;-81
2024/02/18 03:53:05;;;;;;;8.02;4.57;;;;;;;;;;4899584;29;20032;-80
2024/02/18 03:55:50;;;;;;;12.13;4.97;;;;;;;;;;4908578;29;20020;-81
2024/02/18 03:58:36;;;;;;;12.55;5.63;;;;;;;;;;4902810;29;20071;-81
2024/02/18 04:01:21;;;;;;;19.50;4.95;;;;;;;;;;4909573;29;20265;-80
2024/02/18 04:04:07;;;;;;;8.27;4.65;;;;;;;;;;4905051;29;20027;-80
2024/02/18 04:06:52;;;;;;;10.90;4.80;;;;;;;;;;4901845;29;20376;-81
2024/02/18 04:09:37;;;;;;;8.45;4.97;;;;;;;;;;4899404;29;20039;-80
2024/02/18 04:12:25;;;;;;;8.45;4.38;;;;;;;;;;4897534;29;20064;-80
2024/02/18 04:15:11;;;;;;;8.70;4.82;;;;;;;;;;4897355;29;20035;-80
2024/02/18 04:17:56;;;;;;;11.35;4.85;;;;;;;;;;4901125;29;20395;-80
2024/02/18 04:20:41;;;;;;;8.15;5.13;;;;;;;;;;4894798;29;20369;-80
2024/02/18 04:23:27;;;;;;;8.27;4.45;;;;;;;;;;4896644;29;20024;-80
2024/02/18 04:26:12;;;;;;;7.45;4.75;;;;;;;;;;4899262;29;20024;-80
2024/02/18 04:28:58;;;;;;;7.50;4.43;;;;;;;;;;4898092;29;20043;-80
2024/02/18 04:31:43;;;;;;;10.18;5.35;;;;;;;;;;4909222;29;20083;-81
2024/02/18 04:34:29;;;;;;;9.77;5.20;;;;;;;;;;4896397;29;20036;-81
2024/02/18 04:37:14;;;;;;;7.75;5.18;;;;;;;;;;4899030;29;20305;-80
2024/02/18 04:39:59;;;;;;;11.18;5.47;;;;;;;;;;4893634;29;20031;-80
2024/02/18 04:42:44;;;;;;;11.55;5.95;;;;;;;;;;4897414;29;20091;-80
2024/02/18 04:45:30;;;;;;;11.65;5.28;;;;;;;;;;4900318;29;20032;-80
2024/02/18 04:48:15;;;;;;;11.65;5.63;;;;;;;;;;4905363;29;20036;-80
2024/02/18 04:51:01;;;;;;;10.38;5.70;;;;;;;;;;4899781;29;20028;-80
2024/02/18 04:53:46;;;;;;;11.82;5.43;;;;;;;;;;4913679;29;20025;-79
2024/02/18 04:56:31;;;;;;;9.10;5.35;;;;;;;;;;4902361;29;20039;-80
2024/02/18 04:59:17;;;;;;;9.18;5.07;;;;;;;;;;4905492;29;20107;-79
2024/02/18 05:02:02;;;;;;;11.43;4.57;;;;;;;;;;4894797;29;20024;-80
2024/02/18 05:04:48;;;;;;;9.98;5.68;;;;;;;;;;4895835;29;20032;-81
2024/02/18 05:07:33;;;;;;;7.82;4.43;;;;;;;;;;4912294;29;20074;-81
2024/02/18 05:10:18;;;;;;;11.00;6.10;;;;;;;;;;4904184;29;20032;-81
2024/02/18 05:13:06;;;;;;;10.35;4.63;;;;;;;;;;4908764;29;20103;-81
2024/02/18 05:15:52;;;;;;;10.23;5.03;;;;;;;;;;4897219;29;20111;-80
2024/02/18 05:18:37;;;;;;;10.95;5.57;;;;;;;;;;4906412;29;20034;-80
2024/02/18 05:21:23;;;;;;;8.77;4.70;;;;;;;;;;4898384;29;20027;-80
2024/02/18 05:24:10;;;;;;;8.73;4.90;;;;;;;;;;4899737;29;20028;-79
2024/02/18 05:26:55;;;;;;;8.48;4.82;;;;;;;;;;4889676;29;20553;-80
2024/02/18 05:29:40;;;;;;;9.93;5.55;;;;;;;;;;4907130;29;20120;-80
2024/02/18 05:32:26;;;;;;;9.88;4.80;;;;;;;;;;4893912;29;20115;-80
2024/02/18 05:35:11;;;;;;;9.25;5.88;;;;;;;;;;4903385;29;20023;-80
2024/02/18 05:37:56;;;;;;;8.45;4.85;;;;;;;;;;4900266;29;20028;-80
2024/02/18 05:40:42;;;;;;;9.07;4.90;;;;;;;;;;4894574;29;20023;-80
2024/02/18 05:43:27;;;;;;;9.35;5.07;;;;;;;;;;4899336;29;20020;-80
2024/02/18 05:46:12;;;;;;;10.30;5.22;;;;;;;;;;4906002;29;20038;-81
2024/02/18 05:48:57;;;;;;;8.88;5.68;;;;;;;;;;4896680;29;20020;-80
2024/02/18 05:51:43;;;;;;;10.88;6.10;;;;;;;;;;4898994;29;20091;-80
2024/02/18 05:54:28;;;;;;;10.75;5.20;;;;;;;;;;4897429;29;20103;-80
2024/02/18 05:57:14;;;;;;;11.00;6.15;;;;;;;;;;4899084;29;20036;-80
2024/02/18 05:59:59;;;;;;;8.23;5.18;;;;;;;;;;4899271;29;20028;-80
2024/02/18 06:02:45;;;;;;;11.73;6.05;;;;;;;;;;4908898;29;20046;-80
2024/02/18 06:05:30;;;;;;;9.52;5.63;;;;;;;;;;4896534;29;20044;-80
2024/02/18 06:08:15;;;;;;;10.20;5.25;;;;;;;;;;4891351;29;20046;-80
2024/02/18 06:11:01;;;;;;;9.32;5.35;;;;;;;;;;4898624;29;20028;-81
2024/02/18 06:13:46;;;;;;;9.50;5.47;;;;;;;;;;4901157;29;20044;-81
2024/02/18 06:16:32;;;;;;;11.50;5.30;;;;;;;;;;4897092;29;20389;-81
2024/02/18 06:19:19;;;;;;;8.90;5.70;;;;;;;;;;4909651;29;20024;-80
2024/02/18 06:22:04;;;;;;;11.13;5.50;;;;;;;;;;4899884;29;20024;-81
2024/02/18 06:24:50;;;;;;;10.60;5.97;;;;;;;;;;4897410;29;20126;-80
2024/02/18 06:27:36;;;;;;;10.63;5.95;;;;;;;;;;4898403;29;20118;-80
2024/02/18 06:30:21;;;;;;;9.48;6.05;;;;;;;;;;4898159;29;20032;-81
2024/02/18 06:33:07;;;;;;;11.55;6.43;;;;;;;;;;4921914;29;20168;-80
2024/02/18 06:35:52;;;;;;;8.77;5.82;;;;;;;;;;4902862;29;20036;-80
2024/02/18 06:38:42;;;;;;;8.45;5.65;;;;;;;;;;4897847;29;20066;-80
2024/02/18 06:41:27;;;;;;;12.25;5.75;;;;;;;;;;4884322;29;20032;-80
2024/02/18 06:44:12;;;;;;;12.23;6.30;;;;;;;;;;4904720;29;20032;-80
2024/02/18 06:46:58;;;;;;;10.27;6.15;;;;;;;;;;4905780;29;20028;-80
2024/02/18 06:49:43;;;;;;;10.40;6.72;;;;;;;;;;4889418;29;20036;-81
2024/02/18 06:52:28;;;;;;;10.70;6.47;;;;;;;;;;4899738;29;20024;-80
2024/02/18 06:55:14;;;;;;;11.85;5.97;;;;;;;;;;4899343;29;20079;-80
2024/02/18 06:58:00;;;;;;;11.05;6.55;;;;;;;;;;4901438;29;20024;-80
2024/02/18 07:00:45;;;;;;;10.20;6.35;;;;;;;;;;4892047;29;20032;-80
2024/02/18 07:03:32;;;;;;;11.35;6.72;;;;;;;;;;4898784;29;20055;-80
2024/02/18 07:06:18;;;;;;;11.02;6.25;;;;;;;;;;4909776;29;20012;-81
2024/02/18 07:09:03;;;;;;;10.35;5.75;;;;;;;;;;4905990;29;20107;-80
2024/02/18 07:11:49;;;;;;;12.25;6.70;;;;;;;;;;4901481;29;20114;-80
2024/02/18 07:14:35;;;;;;;10.45;6.60;;;;;;;;;;4884924;29;20048;-80
2024/02/18 07:17:20;;;;;;;10.68;7.18;;;;;;;;;;4906554;29;20024;-80
2024/02/18 07:20:06;;;;;;;10.27;6.53;;;;;;;;;;4897119;29;20080;-80
2024/02/18 07:22:51;;;;;;;11.80;7.00;;;;;;;;;;4910604;29;20032;-81
2024/02/18 07:25:37;;;;;;;12.75;7.60;;;;;;;;;;4913303;29;20039;-79
2024/02/18 07:28:22;;;;;;;15.30;6.50;;;;;;;;;;4905899;29;20032;-82
2024/02/18 07:31:08;;;;;;;12.25;6.57;;;;;;;;;;4907657;29;20034;-81
2024/02/18 07:33:53;;;;;;;11.00;6.28;;;;;;;;;;4882171;29;20032;-80
2024/02/18 07:36:39;;;;;;;9.68;5.70;;;;;;;;;;4909782;29;20030;-81
2024/02/18 07:39:24;;;;;;;9.68;6.35;;;;;;;;;;4894131;29;20035;-81
2024/02/18 07:42:10;;;;;;;11.40;6.82;;;;;;;;;;4901433;29;20024;-80
2024/02/18 07:44:56;;;;;;;10.07;6.20;;;;;;;;;;4900584;29;20130;-81
2024/02/18 07:47:42;;;;;;;11.73;7.05;;;;;;;;;;4899504;29;20032;-81
2024/02/18 07:50:27;;;;;;;12.98;7.47;;;;;;;;;;4893454;29;20032;-81
2024/02/18 07:53:12;;;;;;;13.80;7.60;;;;;;;;;;4899737;29;20028;-81
2024/02/18 07:55:57;;;;;;;12.27;7.55;;;;;;;;;;4900890;29;20031;-80
2024/02/18 07:58:44;;;;;;;13.80;7.65;;;;;;;;;;4900493;29;20029;-80
2024/02/18 08:01:29;;;;;;;16.05;9.02;;;;;;;;;;4891383;29;20025;-80
2024/02/18 08:04:14;;;;;;;12.80;7.85;;;;;;;;;;4896912;29;20032;-80
2024/02/18 08:07:00;;;;;;;14.32;9.10;;;;;;;;;;4898438;29;20043;-81
2024/02/18 08:09:45;;;;;;;16.00;7.78;;;;;;;;;;4910239;29;20035;-80
2024/02/18 08:12:30;;;;;;;14.05;9.02;;;;;;;;;;4910319;29;20234;-80
2024/02/18 08:15:16;;;;;;;22.38;12.43;;;;;;;;;;4897607;29;20028;-80
2024/02/18 08:18:01;;;;;;;17.33;10.75;;;;;;;;;;4897420;29;20036;-80
2024/02/18 08:20:46;;;;;;;16.77;11.30;;;;;;;;;;4902662;29;20044;-81
2024/02/18 08:23:32;;;;;;;17.15;9.98;;;;;;;;;;4887832;29;20099;-80
2024/02/18 08:26:21;;;;;;;17.27;10.32;;;;;;;;;;4915736;29;20034;-80
2024/02/18 08:29:07;;;;;;;14.80;8.88;;;;;;;;;;4897538;29;20031;-80
2024/02/18 08:31:53;;;;;;;13.45;8.65;;;;;;;;;;4909240;29;20025;-81
2024/02/18 08:34:40;;;;;;;16.77;8.85;;;;;;;;;;4899749;29;20028;-80
2024/02/18 08:37:25;;;;;;;14.93;9.45;;;;;;;;;;4901729;29;20031;-81
2024/02/18 08:40:11;;;;;;;11.77;8.38;;;;;;;;;;4900306;29;20036;-81
2024/02/18 08:42:56;;;;;;;14.35;9.82;;;;;;;;;;4905334;29;20180;-81
2024/02/18 08:45:42;;;;;;;14.57;9.35;;;;;;;;;;4893348;29;20035;-82
2024/02/18 08:48:28;;;;;;;13.13;8.32;;;;;;;;;;4894250;29;20028;-81
2024/02/18 08:51:13;;;;;;;15.45;9.68;;;;;;;;;;4893441;29;20027;-82
2024/02/18 08:53:59;;;;;;;15.82;9.05;;;;;;;;;;4897408;29;20083;-81
2024/02/18 08:56:44;;;;;;;14.35;9.43;;;;;;;;;;4908746;29;20119;-81
2024/02/18 08:59:30;;;;;;;16.30;9.13;;;;;;;;;;4896687;29;20024;-81
2024/02/18 09:02:15;;;;;;;16.63;9.82;;;;;;;;;;4905089;29;20036;-80
2024/02/18 09:05:01;;;;;;;13.68;8.05;;;;;;;;;;4909206;29;20058;-81
2024/02/18 09:07:46;;;;;;;15.13;8.05;;;;;;;;;;4891636;29;20051;-81
2024/02/18 09:10:31;;;;;;;12.82;7.78;;;;;;;;;;4893695;29;20032;-81
2024/02/18 09:13:17;;;;;;;14.85;8.95;;;;;;;;;;4902754;29;20051;-81
2024/02/18 09:16:02;;;;;;;13.88;9.15;;;;;;;;;;4902623;29;20032;-82
2024/02/18 09:18:47;;;;;;;14.02;8.13;;;;;;;;;;4888510;29;20020;-83
2024/02/18 09:21:33;;;;;;;12.18;7.47;;;;;;;;;;4892726;29;20118;-82
2024/02/18 09:24:19;;;;;;;12.13;7.95;;;;;;;;;;4900024;29;20334;-82
2024/02/18 09:27:06;;;;;;;11.40;7.57;;;;;;;;;;4896172;29;20032;-81
2024/02/18 09:29:51;;;;;;;13.13;7.93;;;;;;;;;;4903990;29;20144;-81
2024/02/18 09:32:37;;;;;;;17.45;9.82;;;;;;;;;;4907085;29;20040;-81
2024/02/18 09:35:22;;;;;;;11.82;7.97;;;;;;;;;;4899381;29;20077;-81
2024/02/18 09:38:12;;;;;;;13.05;8.20;;;;;;;;;;4899548;29;20147;-81
2024/02/18 09:40:57;;;;;;;11.98;7.78;;;;;;;;;;4901433;29;20112;-80
2024/02/18 09:43:44;;;;;;;11.23;7.03;;;;;;;;;;4902447;29;20028;-81
2024/02/18 09:46:32;;;;;;;12.23;6.63;;;;;;;;;;4895969;29;20036;-81
2024/02/18 09:49:18;;;;;;;10.95;6.53;;;;;;;;;;4887612;29;20024;-81
2024/02/18 09:52:03;;;;;;;9.30;6.18;;;;;;;;;;4898923;29;20060;-80
2024/02/18 09:54:50;;;;;;;8.77;5.63;;;;;;;;;;4904569;29;20028;-83
2024/02/18 09:57:36;;;;;;;8.90;4.78;;;;;;;;;;4913317;29;20115;-83
2024/02/18 10:00:22;;;;;;;10.85;5.10;;;;;;;;;;4901094;29;20039;-83
2024/02/18 10:03:08;;;;;;;8.95;5.45;;;;;;;;;;4898076;29;20038;-80
2024/02/18 10:05:54;;;;;;;8.68;5.38;;;;;;;;;;4903952;29;20034;-81
2024/02/18 10:08:40;;;;;;;8.98;4.70;;;;;;;;;;4899173;29;20035;-80
2024/02/18 10:11:26;;;;;;;7.38;3.90;;;;;;;;;;4895968;29;20035;-82
2024/02/18 10:14:11;;;;;;;7.90;4.32;;;;;;;;;;4900359;29;20048;-81
2024/02/18 10:16:56;;;;;;;7.03;4.40;;;;;;;;;;4899877;29;20028;-81
2024/02/18 10:19:41;;;;;;;7.80;4.78;;;;;;;;;;4886757;29;20164;-81
2024/02/18 10:22:27;;;;;;;6.15;4.15;;;;;;;;;;4912954;29;20055;-81
2024/02/18 10:25:13;;;;;;;6.65;3.80;;;;;;;;;;4929401;29;20031;-80
2024/02/18 10:27:58;;;;;;;10.93;4.90;;;;;;;;;;4911238;29;20024;-81
2024/02/18 10:30:43;;;;;;;5.75;3.63;;;;;;;;;;4912632;29;20036;-81
2024/02/18 10:33:28;;;;;;;8.30;4.70;;;;;;;;;;4914769;29;20048;-81
2024/02/18 10:36:16;;;;;;;8.30;4.60;;;;;;;;;;4919149;29;20040;-80
2024/02/18 10:39:03;;;;;;;8.55;4.20;;;;;;;;;;4910504;29;20091;-79
2024/02/18 10:42:09;;;;;;;6.35;3.38;;;;;;;;;;4902102;29;20054;-81
2024/02/18 10:44:56;;;;;;;9.35;4.05;;;;;;;;;;4898655;29;20020;-80
2024/02/18 10:47:44;;;;;;;6.18;3.80;;;;;;;;;;4912291;29;20086;-81
2024/02/18 10:50:34;;;;;;;7.03;3.88;;;;;;;;;;4900913;29;20103;-81
2024/02/18 10:53:32;;;;;;;6.32;3.65;;;;;;;;;;4894324;29;20040;-81
2024/02/18 10:56:21;;;;;;;5.72;3.50;;;;;;;;;;4894384;29;20024;-81
2024/02/18 10:59:25;;;;;;;4.87;3.33;;;;;;;;;;4906450;29;20016;-81
2024/02/18 11:02:15;;;;;;;6.55;3.53;;;;;;;;;;4906938;29;20028;-81
2024/02/18 11:05:00;;;;;;;6.75;3.67;;;;;;;;;;4904154;29;20050;-81
2024/02/18 11:07:46;;;;;;;7.82;4.00;;;;;;;;;;4899395;29;20032;-83
2024/02/18 11:10:32;;;;;;;6.00;3.97;;;;;;;;;;4893459;29;20047;-81
2024/02/18 11:13:18;;;;;;;7.65;4.13;;;;;;;;;;4897418;29;20036;-85
2024/02/18 11:16:04;;;;;;;5.50;3.55;;;;;;;;;;4900399;29;20043;-86
2024/02/18 11:18:50;;;;;;;8.35;4.15;;;;;;;;;;4900708;29;20035;-84
2024/02/18 11:21:36;;;;;;;7.07;3.78;;;;;;;;;;4906167;29;20130;-83
2024/02/18 11:24:24;;;;;;;5.22;3.70;;;;;;;;;;4900004;29;20036;-86
2024/02/18 11:27:09;;;;;;;5.80;3.20;;;;;;;;;;4897874;29;20044;-83
2024/02/18 11:29:55;;;;;;;5.70;3.20;;;;;;;;;;4898165;29;20040;-84
2024/02/18 11:32:40;;;;;;;6.25;3.78;;;;;;;;;;4906361;29;20091;-84
2024/02/18 11:35:25;;;;;;;6.03;3.67;;;;;;;;;;4909635;29;20024;-82
2024/02/18 11:38:11;;;;;;;4.72;2.88;;;;;;;;;;4896513;29;20025;-82
2024/02/18 11:40:56;;;;;;;4.97;3.60;;;;;;;;;;4888808;29;20024;-81
2024/02/18 11:43:42;;;;;;;4.35;3.40;;;;;;;;;;4899817;29;20330;-80
2024/02/18 11:46:28;;;;;;;4.70;3.13;;;;;;;;;;4894833;29;20095;-80
2024/02/18 11:49:14;;;;;;;5.25;3.05;;;;;;;;;;4884529;29;20036;-80
2024/02/18 11:51:59;;;;;;;6.15;3.47;;;;;;;;;;4898553;29;20028;-79
2024/02/18 11:54:44;;;;;;;4.97;3.25;;;;;;;;;;4897381;29;20028;-81
2024/02/18 11:57:30;;;;;;;7.32;3.83;;;;;;;;;;4903955;29;20034;-81
2024/02/18 12:00:16;;;;;;;6.20;3.38;;;;;;;;;;4895535;29;20034;-81
2024/02/18 12:03:03;;;;;;;5.32;3.30;;;;;;;;;;4896252;29;20047;-81
2024/02/18 12:05:49;;;;;;;4.95;3.30;;;;;;;;;;4907952;29;20020;-80
2024/02/18 12:08:34;;;;;;;7.25;3.17;;;;;;;;;;4910543;29;20458;-81
2024/02/18 12:11:19;;;;;;;5.88;2.97;;;;;;;;;;4897255;29;20084;-81
2024/02/18 12:14:05;;;;;;;7.75;4.43;;;;;;;;;;4902038;29;20044;-81
2024/02/18 12:16:50;;;;;;;5.88;3.30;;;;;;;;;;4898692;29;20032;-81
2024/02/18 12:19:36;;;;;;;7.90;3.28;;;;;;;;;;4898367;29;20034;-80
2024/02/18 12:22:29;;;;;;;6.15;3.40;;;;;;;;;;4899142;29;20115;-82
2024/02/18 12:25:15;;;;;;;5.05;3.42;;;;;;;;;;4905777;29;20095;-82
2024/02/18 12:28:00;;;;;;;5.50;3.17;;;;;;;;;;4908779;29;20088;-83
2024/02/18 12:30:46;;;;;;;6.53;3.47;;;;;;;;;;4907371;29;20107;-83
2024/02/18 12:33:32;;;;;;;7.85;4.30;;;;;;;;;;4900214;29;20044;-83
2024/02/18 12:36:17;;;;;;;7.55;3.33;;;;;;;;;;4892780;29;20031;-83
2024/02/18 12:39:02;;;;;;;6.55;3.92;;;;;;;;;;4896662;29;20135;-83
2024/02/18 12:41:48;;;;;;;6.78;3.85;;;;;;;;;;4896236;29;20020;-84
2024/02/18 12:44:34;;;;;;;6.65;4.03;;;;;;;;;;4896728;29;20039;-84
2024/02/18 12:47:20;;;;;;;6.47;4.28;;;;;;;;;;4900586;29;20032;-82
2024/02/18 12:50:06;;;;;;;6.82;4.22;;;;;;;;;;4890958;29;20080;-83
2024/02/18 12:52:51;;;;;;;6.32;4.47;;;;;;;;;;4896654;29;20234;-83
2024/02/18 12:55:38;;;;;;;8.63;4.65;;;;;;;;;;4892053;29;20501;-84
2024/02/18 12:58:24;;;;;;;7.30;4.15;;;;;;;;;;4896791;29;20035;-84
2024/02/18 13:01:09;;;;;;;6.57;4.00;;;;;;;;;;4896535;29;20035;-82
2024/02/18 13:03:55;;;;;;;7.95;4.88;;;;;;;;;;4902904;29;20491;-84
2024/02/18 13:06:42;;;;;;;9.73;5.50;;;;;;;;;;4892155;29;20368;-89
2024/02/18 13:09:27;;;;;;;7.50;4.72;;;;;;;;;;4906361;29;20040;-83
2024/02/18 13:12:13;;;;;;;7.53;4.72;;;;;;;;;;4889966;29;20115;-84
2024/02/18 13:14:58;;;;;;;9.15;5.65;;;;;;;;;;4896285;29;20075;-81
2024/02/18 13:17:47;;;;;;;9.90;6.03;;;;;;;;;;4912372;29;20029;-79
2024/02/18 13:20:33;;;;;;;10.73;6.10;;;;;;;;;;4898763;29;20028;-83
2024/02/18 13:23:18;;;;;;;7.95;5.60;;;;;;;;;;4900175;29;20028;-82
2024/02/18 13:26:03;;;;;;;14.80;9.02;;;;;;;;;;4913174;29;20040;-79
2024/02/18 13:28:49;;;;;;;17.08;8.85;;;;;;;;;;4899161;29;20036;-80
2024/02/18 13:31:34;;;;;;;19.92;7.53;;;;;;;;;;4895360;29;20279;-79
2024/02/18 13:34:20;;;;;;;11.77;6.80;;;;;;;;;;4903670;29;20060;-79
2024/02/18 13:37:05;;;;;;;9.98;5.60;;;;;;;;;;4900654;29;20036;-80
2024/02/18 13:39:50;;;;;;;11.00;6.45;;;;;;;;;;4902376;29;20057;-78
2024/02/18 13:42:36;;;;;;;9.80;5.75;;;;;;;;;;4904949;29;20038;-80
2024/02/18 13:45:21;;;;;;;12.93;7.10;;;;;;;;;;4898617;29;20048;-79
2024/02/18 13:48:07;;;;;;;13.48;6.85;;;;;;;;;;4899220;29;20118;-80
2024/02/18 13:50:52;;;;;;;10.18;6.40;;;;;;;;;;4897679;29;20111;-78
2024/02/18 13:53:37;;;;;;;12.88;5.85;;;;;;;;;;4893199;29;20059;-79
2024/02/18 13:56:23;;;;;;;10.65;5.90;;;;;;;;;;4898114;29;20032;-79
2024/02/18 13:59:08;;;;;;;11.00;6.57;;;;;;;;;;4899233;29;20036;-77
2024/02/18 14:01:53;;;;;;;14.85;8.25;;;;;;;;;;4896984;29;20036;-77
2024/02/18 14:04:39;;;;;;;11.43;7.03;;;;;;;;;;4901279;29;20035;-79
2024/02/18 14:07:24;;;;;;;10.48;7.53;;;;;;;;;;4907586;29;20078;-78
2024/02/18 14:10:11;;;;;;;10.35;7.22;;;;;;;;;;4910063;29;20038;-78
2024/02/18 14:12:56;;;;;;;10.90;7.50;;;;;;;;;;4908215;29;20099;-79
2024/02/18 14:15:41;;;;;;;10.55;7.22;;;;;;;;;;4897678;29;20031;-79
2024/02/18 14:18:27;;;;;;;11.50;7.55;;;;;;;;;;4905141;29;20035;-77
2024/02/18 14:21:12;;;;;;;11.30;7.10;;;;;;;;;;4905183;29;20028;-77
2024/02/18 14:23:58;;;;;;;11.65;7.68;;;;;;;;;;4897948;29;20159;-78
2024/02/18 14:26:43;;;;;;;13.15;7.75;;;;;;;;;;4910398;29;20035;-77
2024/02/18 14:29:28;;;;;;;12.52;7.32;;;;;;;;;;4900843;29;20032;-77
2024/02/18 14:32:14;;;;;;;11.23;7.60;;;;;;;;;;4922202;29;20032;-77
2024/02/18 14:35:01;;;;;;;11.43;6.80;;;;;;;;;;4902135;29;20510;-78
2024/02/18 14:37:46;;;;;;;11.70;7.28;;;;;;;;;;4900415;29;20085;-77
2024/02/18 14:40:32;;;;;;;11.32;7.28;;;;;;;;;;4887440;29;20029;-77
2024/02/18 14:43:18;;;;;;;11.35;7.63;;;;;;;;;;4914409;29;20095;-77
2024/02/18 14:46:04;;;;;;;10.82;7.22;;;;;;;;;;4903249;29;20082;-77
2024/02/18 14:48:49;;;;;;;11.52;7.35;;;;;;;;;;4900571;29;20111;-77
2024/02/18 14:51:34;;;;;;;10.70;6.85;;;;;;;;;;4905963;29;20141;-79
2024/02/18 14:54:19;;;;;;;9.88;6.53;;;;;;;;;;4911325;29;20013;-80
2024/02/18 14:57:05;;;;;;;8.45;4.72;;;;;;;;;;4894976;29;20056;-80
2024/02/18 14:59:50;;;;;;;7.70;4.72;;;;;;;;;;4898365;29;20381;-80
2024/02/18 15:02:37;;;;;;;6.43;3.83;;;;;;;;;;4910322;29;20031;-79
2024/02/18 15:05:22;;;;;;;8.75;5.00;;;;;;;;;;4905571;29;20024;-80
2024/02/18 15:08:07;;;;;;;6.93;4.63;;;;;;;;;;4925078;29;20036;-79
2024/02/18 15:10:53;;;;;;;7.28;4.43;;;;;;;;;;4896125;29;20043;-80
2024/02/18 15:13:38;;;;;;;8.27;4.68;;;;;;;;;;4927283;29;20067;-80
2024/02/18 15:16:23;;;;;;;7.15;4.32;;;;;;;;;;4915891;29;20114;-79
2024/02/18 15:19:09;;;;;;;10.07;5.03;;;;;;;;;;4917270;29;20043;-86
2024/02/18 15:21:54;;;;;;;7.35;4.38;;;;;;;;;;4927622;29;20377;-89
2024/02/18 15:24:40;;;;;;;10.50;4.60;;;;;;;;;;4922214;29;20042;-87
2024/02/18 15:27:25;;;;;;;8.75;4.55;;;;;;;;;;4908197;29;20032;-85
2024/02/18 15:30:10;;;;;;;7.65;4.03;;;;;;;;;;4909333;29;20030;-85
2024/02/18 15:32:56;;;;;;;7.25;3.95;;;;;;;;;;4918314;29;20023;-86
2024/02/18 15:35:44;;;;;;;10.20;5.28;;;;;;;;;;4924449;29;20051;-85
2024/02/18 15:38:29;;;;;;;9.55;5.55;;;;;;;;;;4921953;29;20420;-86
2024/02/18 15:41:14;;;;;;;12.00;6.43;;;;;;;;;;4912574;29;20071;-87
2024/02/18 15:43:59;;;;;;;8.25;4.70;;;;;;;;;;4911679;29;20031;-84
2024/02/18 15:46:45;;;;;;;13.10;7.72;;;;;;;;;;4925579;29;20032;-84
2024/02/18 15:49:30;;;;;;;11.65;5.68;;;;;;;;;;4922102;29;20036;-87
2024/02/18 15:52:15;;;;;;;11.20;6.95;;;;;;;;;;4926685;29;20028;-86
2024/02/18 15:55:01;;;;;;;12.48;5.95;;;;;;;;;;4921702;29;20114;-85
2024/02/18 15:57:46;;;;;;;12.10;5.47;;;;;;;;;;4918764;29;20042;-86
2024/02/18 16:00:31;;;;;;;10.80;5.95;;;;;;;;;;4910530;29;20066;-86
2024/02/18 16:03:17;;;;;;;9.40;4.88;;;;;;;;;;4910761;29;20075;-86
2024/02/18 16:06:02;;;;;;;10.27;4.55;;;;;;;;;;4906553;29;20057;-87
2024/02/18 16:08:48;;;;;;;8.23;4.78;;;;;;;;;;4904619;29;20036;-86
2024/02/18 16:11:34;;;;;;;7.05;4.30;;;;;;;;;;4920673;29;20036;-87
2024/02/18 16:14:19;;;;;;;9.05;4.25;;;;;;;;;;4918509;29;20120;-86
2024/02/18 16:17:04;;;;;;;6.97;4.47;;;;;;;;;;4910084;29;20460;-84
2024/02/18 16:19:50;;;;;;;6.93;4.30;;;;;;;;;;4917160;29;20072;-85
2024/02/18 16:22:35;;;;;;;7.63;4.40;;;;;;;;;;4908171;29;20043;-84
2024/02/18 16:25:21;;;;;;;8.18;4.43;;;;;;;;;;4922930;29;20035;-85